Terminal Aerodrome Forecast
Issued by NWS Sterling, VA

Home | Current Version | Previous Version | Text Only | Print | Product List | Glossary On
Versions: 1 2 3 4 5 6 7 8 9 10 11 12 13 14 15 16 17 18 19 20 21 22 23 24 25 26 27 28 29 30 31 32 33
000
FTUS41 KLWX 021122
TAFIAD
TAF
KIAD 021122Z 0212/0318 03006KT 5SM -DZ OVC008
     FM021700 02007KT P6SM BKN015 OVC025
     FM030200 04005KT P6SM OVC008
     FM030600 05006KT P6SM -SHRA OVC008
     FM031500 04006KT 6SM -SHRA OVC015=

USA.gov is the U.S. government's official web portal to all federal, state and local government web resources and services.